Time;durP1;ratioP1;P1;durP2;ratioP2;P2;SDS_P1;SDS_P2;PMS_P1;PMS_P2;Temp;Humidity;BMP_temperature;BMP_pressure;BME280_temperature;BME280_humidity;BME280_pressure;Samples;Min_cycle;Max_cycle;Signal;HPM_P1;HPM_P2
2023/07/27 00:01:46;;;;;;;;;;;;;;;21.15;82.90;99898.36;107837;1250;98277;-67
2023/07/27 00:04:14;;;;;;;;;;;;;;;21.16;82.86;99905.42;107670;1251;111754;-66
2023/07/27 00:06:42;;;;;;;;;;;;;;;21.13;82.60;99910.75;107544;1251;110074;-68
2023/07/27 00:09:11;;;;;;;;;;;;;;;21.10;82.54;99913.39;107545;1251;107485;-68
2023/07/27 00:11:41;;;;;;;;;;;;;;;21.06;82.37;99913.14;107566;1249;97826;-68
2023/07/27 00:14:09;;;;;;;;;;;;;;;21.04;83.20;99910.42;107619;1251;97796;-67
2023/07/27 00:16:37;;;;;;;;;;;;;;;20.95;83.11;99907.54;107802;1251;110739;-68
2023/07/27 00:19:06;;;;;;;;;;;;;;;20.81;84.27;99910.61;107655;1256;109784;-67
2023/07/27 00:21:35;;;;;;;;;;;;;;;20.64;85.05;99907.45;107576;1250;107705;-67
2023/07/27 00:24:03;;;;;;;;;;;;;;;20.50;86.21;99917.67;107553;1250;97805;-67
2023/07/27 00:26:31;;;;;;;;;;;;;;;20.35;87.26;99917.11;107709;1250;98585;-67
2023/07/27 00:28:59;;;;;;;;;;;;;;;20.24;88.10;99912.79;107802;1251;111609;-68
2023/07/27 00:31:27;;;;;;;;;;;;;;;20.15;88.50;99909.79;107560;1249;110916;-69
2023/07/27 00:33:57;;;;;;;;;;;;;;;20.07;89.35;99906.52;107552;1251;108197;-67
2023/07/27 00:36:25;;;;;;;;;;;;;;;20.01;89.57;99902.02;107662;1250;97822;-68
2023/07/27 00:38:54;;;;;;;;;;;;;;;20.03;88.65;99890.92;107704;1251;97894;-66
2023/07/27 00:41:22;;;;;;;;;;;;;;;20.11;88.36;99888.36;107838;1251;110739;-70
2023/07/27 00:43:50;;;;;;;;;;;;;;;20.20;88.06;99887.14;107811;1251;109904;-69
2023/07/27 00:46:18;;;;;;;;;;;;;;;20.26;87.79;99885.34;107845;1251;107644;-68
2023/07/27 00:48:47;;;;;;;;;;;;;;;20.28;87.92;99877.80;107818;1253;97906;-68
2023/07/27 00:51:16;;;;;;;;;;;;;;;20.18;88.67;99868.38;107839;1250;97727;-67
2023/07/27 00:53:44;;;;;;;;;;;;;;;20.05;89.56;99866.55;107799;1249;111991;-71
2023/07/27 00:56:13;;;;;;;;;;;;;;;19.95;89.74;99857.93;107512;1250;110306;-68
2023/07/27 00:58:42;;;;;;;;;;;;;;;19.92;89.78;99859.66;107599;1249;108131;-68
2023/07/27 01:01:10;;;;;;;;;;;;;;;19.95;89.46;99862.84;107593;1251;97694;-67
2023/07/27 01:03:39;;;;;;;;;;;;;;;20.01;89.41;99865.52;107707;1251;97659;-68
2023/07/27 01:06:07;;;;;;;;;;;;;;;20.02;89.58;99859.23;107543;1250;111592;-69
2023/07/27 01:08:43;;;;;;;;;;;;;;;19.98;89.87;99858.17;107587;1251;108696;-68
2023/07/27 01:11:21;;;;;;;;;;;;;;;19.96;90.19;99866.27;107543;1251;108677;-70
2023/07/27 01:13:56;;;;;;;;;;;;;;;19.94;89.86;99870.83;107662;1249;97823;-67
2023/07/27 01:16:33;;;;;;;;;;;;;;;19.97;90.42;99869.87;107751;1251;97915;-67
2023/07/27 01:19:21;;;;;;;;;;;;;;;20.01;90.00;99877.58;107678;1249;111993;-67
2023/07/27 01:21:58;;;;;;;;;;;;;;;20.09;89.73;99894.07;107589;1251;109190;-67
2023/07/27 01:24:45;;;;;;;;;;;;;;;20.14;89.94;99897.52;107698;1251;109635;-67
2023/07/27 01:27:32;;;;;;;;;;;;;;;20.12;90.41;99893.05;107833;1251;97928;-67
2023/07/27 01:30:16;;;;;;;;;;;;;;;20.11;90.28;99898.97;107840;1251;97940;-66
2023/07/27 01:32:49;;;;;;;;;;;;;;;20.13;89.94;99900.89;107570;1251;112172;-67
2023/07/27 01:35:21;;;;;;;;;;;;;;;20.15;89.87;99902.98;107599;1250;108133;-67
2023/07/27 01:37:51;;;;;;;;;;;;;;;20.19;89.87;99902.57;107831;1249;108113;-68
2023/07/27 01:40:20;;;;;;;;;;;;;;;20.21;89.34;99911.27;107608;1251;97808;-68
2023/07/27 01:42:49;;;;;;;;;;;;;;;20.15;88.00;99918.94;107672;1249;97910;-66
2023/07/27 01:45:18;;;;;;;;;;;;;;;20.10;87.10;99919.73;107824;1251;112163;-67
2023/07/27 01:47:47;;;;;;;;;;;;;;;20.10;86.24;99921.16;107687;1250;109224;-68
2023/07/27 01:50:16;;;;;;;;;;;;;;;20.08;85.33;99924.94;107832;1253;107788;-67
2023/07/27 01:52:46;;;;;;;;;;;;;;;20.03;84.34;99935.81;107531;1249;97861;-68
2023/07/27 01:55:17;;;;;;;;;;;;;;;19.85;82.54;99938.55;107689;1249;97755;-68
2023/07/27 01:57:46;;;;;;;;;;;;;;;19.75;82.79;99935.01;107681;1251;112140;-69
2023/07/27 02:00:15;;;;;;;;;;;;;;;19.66;82.36;99939.05;107720;1250;110077;-68
2023/07/27 02:02:45;;;;;;;;;;;;;;;19.61;82.38;99943.00;107506;1250;108675;-67
2023/07/27 02:05:13;;;;;;;;;;;;;;;19.57;81.92;99953.01;107535;1249;97932;-67
2023/07/27 02:07:41;;;;;;;;;;;;;;;19.48;81.23;99968.32;107704;1251;97736;-68
2023/07/27 02:10:13;;;;;;;;;;;;;;;19.37;80.93;99983.96;107725;1254;111245;-70
2023/07/27 02:12:48;;;;;;;;;;;;;;;19.21;80.22;99993.48;107871;1251;109835;-67
2023/07/27 02:15:23;;;;;;;;;;;;;;;19.11;80.30;100000.08;107676;1250;108301;-68
2023/07/27 02:17:54;;;;;;;;;;;;;;;19.04;80.04;100003.39;107870;1250;97828;-69
2023/07/27 02:20:25;;;;;;;;;;;;;;;18.96;79.78;100010.61;107948;1251;97941;-69
2023/07/27 02:22:55;;;;;;;;;;;;;;;18.91;79.16;100013.81;107874;1251;112456;-68
2023/07/27 02:25:24;;;;;;;;;;;;;;;18.89;79.00;100015.39;107887;1251;111292;-69
2023/07/27 02:27:52;;;;;;;;;;;;;;;18.90;78.07;100025.96;107865;1250;107117;-70
2023/07/27 02:30:20;;;;;;;;;;;;;;;18.84;77.71;100034.73;107841;1249;97815;-67
2023/07/27 02:32:48;;;;;;;;;;;;;;;18.69;77.36;100043.14;107903;1251;97835;-68
2023/07/27 02:35:19;;;;;;;;;;;;;;;18.51;77.65;100046.49;107744;1251;110822;-66
2023/07/27 02:37:50;;;;;;;;;;;;;;;18.38;77.94;100055.94;107897;1250;108974;-68
2023/07/27 02:40:22;;;;;;;;;;;;;;;18.35;78.32;100060.02;107701;1255;107591;-66
2023/07/27 02:42:50;;;;;;;;;;;;;;;18.39;78.59;100061.14;107676;1249;97813;-68
2023/07/27 02:45:18;;;;;;;;;;;;;;;18.46;78.65;100054.91;107685;1250;97829;-66
2023/07/27 02:47:47;;;;;;;;;;;;;;;18.50;78.32;100052.20;107567;1249;111960;-66
2023/07/27 02:50:15;;;;;;;;;;;;;;;18.45;77.85;100043.09;107866;1250;110103;-66
2023/07/27 02:52:57;;;;;;;;;;;;;;;18.41;77.85;100043.59;107687;1250;107008;-66
2023/07/27 02:55:25;;;;;;;;;;;;;;;18.39;77.82;100052.38;107526;1253;98098;-67
2023/07/27 02:57:55;;;;;;;;;;;;;;;18.40;77.42;100054.77;107656;1250;97822;-66
2023/07/27 03:00:24;;;;;;;;;;;;;;;18.37;77.43;100051.79;107741;1250;111740;-68
2023/07/27 03:02:52;;;;;;;;;;;;;;;18.36;77.28;100052.36;107707;1251;110287;-68
2023/07/27 03:05:20;;;;;;;;;;;;;;;18.37;77.14;100057.34;107531;1250;107950;-66
2023/07/27 03:07:48;;;;;;;;;;;;;;;18.33;76.58;100061.55;107700;1251;97823;-67
2023/07/27 03:10:17;;;;;;;;;;;;;;;18.29;76.60;100063.70;107742;1251;97777;-68
2023/07/27 03:12:45;;;;;;;;;;;;;;;18.27;76.73;100065.83;107859;1251;112427;-68
2023/07/27 03:15:14;;;;;;;;;;;;;;;18.23;76.46;100069.50;107651;1249;109829;-66
2023/07/27 03:17:45;;;;;;;;;;;;;;;18.20;76.42;100070.33;107564;1250;108192;-69
2023/07/27 03:20:16;;;;;;;;;;;;;;;18.22;76.62;100071.86;107661;1251;97835;-67
2023/07/27 03:22:45;;;;;;;;;;;;;;;18.19;76.22;100076.48;107887;1250;97799;-67
2023/07/27 03:25:13;;;;;;;;;;;;;;;18.09;76.14;100081.42;107864;1251;110421;-66
2023/07/27 03:27:41;;;;;;;;;;;;;;;18.00;76.55;100088.55;107856;1253;108601;-70
2023/07/27 03:30:10;;;;;;;;;;;;;;;17.96;76.93;100088.56;107709;1250;107900;-66
2023/07/27 03:32:38;;;;;;;;;;;;;;;17.93;77.15;100092.55;107884;1249;97899;-67
2023/07/27 03:35:07;;;;;;;;;;;;;;;17.91;77.28;100092.19;107642;1253;97885;-64
2023/07/27 03:37:35;;;;;;;;;;;;;;;17.88;77.50;100090.05;107693;1251;111788;-66
2023/07/27 03:40:03;;;;;;;;;;;;;;;17.85;77.96;100094.80;107818;1250;108779;-67
2023/07/27 03:42:31;;;;;;;;;;;;;;;17.78;78.13;100101.48;107670;1251;108183;-65
2023/07/27 03:45:00;;;;;;;;;;;;;;;17.75;78.64;100106.59;107841;1251;97909;-67
2023/07/27 03:47:28;;;;;;;;;;;;;;;17.78;79.12;100105.90;107612;1250;97723;-68
2023/07/27 03:49:57;;;;;;;;;;;;;;;17.68;79.05;100103.74;107905;1249;111664;-68
2023/07/27 03:52:26;;;;;;;;;;;;;;;17.62;79.76;100101.77;107903;1253;108332;-67
2023/07/27 03:54:54;;;;;;;;;;;;;;;17.60;80.05;100106.16;107667;1251;108560;-68
2023/07/27 03:57:22;;;;;;;;;;;;;;;17.58;80.49;100112.88;107738;1251;97916;-68
2023/07/27 03:59:55;;;;;;;;;;;;;;;17.50;80.33;100121.57;107723;1251;97701;-68
2023/07/27 04:02:24;;;;;;;;;;;;;;;17.51;80.24;100112.24;107713;1251;111131;-68
2023/07/27 04:04:54;;;;;;;;;;;;;;;17.58;80.35;100112.63;107728;1251;110058;-67
2023/07/27 04:07:22;;;;;;;;;;;;;;;17.53;79.98;100120.38;107634;1251;108464;-68
2023/07/27 04:09:50;;;;;;;;;;;;;;;17.50;80.27;100123.02;107510;1251;97815;-69
2023/07/27 04:12:18;;;;;;;;;;;;;;;17.44;80.20;100131.23;107555;1251;97797;-66
2023/07/27 04:14:46;;;;;;;;;;;;;;;17.42;80.08;100126.62;107684;1251;110931;-67
2023/07/27 04:17:17;;;;;;;;;;;;;;;17.40;80.25;100126.71;107891;1249;109727;-66
2023/07/27 04:19:45;;;;;;;;;;;;;;;17.38;80.14;100132.27;107871;1251;108389;-67
2023/07/27 04:22:13;;;;;;;;;;;;;;;17.37;80.15;100139.07;107854;1250;97829;-69
2023/07/27 04:24:44;;;;;;;;;;;;;;;17.30;79.60;100142.82;107753;1250;97837;-66
2023/07/27 04:27:13;;;;;;;;;;;;;;;17.28;79.51;100141.67;107576;1250;112142;-66
2023/07/27 04:29:41;;;;;;;;;;;;;;;17.32;79.62;100146.94;107680;1250;109061;-65
2023/07/27 04:32:09;;;;;;;;;;;;;;;17.32;79.14;100151.83;107855;1251;107487;-66
2023/07/27 04:34:37;;;;;;;;;;;;;;;17.30;78.70;100151.70;107784;1251;97917;-66
2023/07/27 04:37:06;;;;;;;;;;;;;;;17.32;78.95;100161.54;107732;1253;97914;-67
2023/07/27 04:39:34;;;;;;;;;;;;;;;17.32;78.56;100176.12;107731;1255;111814;-66
2023/07/27 04:42:03;;;;;;;;;;;;;;;17.29;78.41;100186.34;107697;1255;108128;-66
2023/07/27 04:44:31;;;;;;;;;;;;;;;17.27;78.46;100192.65;107731;1250;107929;-66
2023/07/27 04:46:59;;;;;;;;;;;;;;;17.31;78.48;100201.55;107725;1251;97806;-66
2023/07/27 04:49:27;;;;;;;;;;;;;;;17.31;78.37;100205.56;107702;1251;97773;-66
2023/07/27 04:51:56;;;;;;;;;;;;;;;17.39;78.67;100205.89;107668;1251;111755;-65
2023/07/27 04:54:24;;;;;;;;;;;;;;;17.45;78.44;100208.75;107671;1251;109811;-66
2023/07/27 04:56:52;;;;;;;;;;;;;;;17.52;78.14;100208.35;107545;1251;108133;-66
2023/07/27 04:59:20;;;;;;;;;;;;;;;17.59;77.69;100210.70;107567;1251;97861;-66
2023/07/27 05:01:48;;;;;;;;;;;;;;;17.72;77.48;100219.84;107853;1250;97842;-67
2023/07/27 05:04:17;;;;;;;;;;;;;;;17.81;76.23;100220.27;107851;1253;111231;-65
2023/07/27 05:06:46;;;;;;;;;;;;;;;17.96;75.68;100222.36;107935;1250;108818;-66
2023/07/27 05:09:14;;;;;;;;;;;;;;;18.11;75.28;100230.67;107844;1251;108317;-67
2023/07/27 05:11:42;;;;;;;;;;;;;;;18.19;74.35;100232.87;107638;1251;97889;-67
2023/07/27 05:14:11;;;;;;;;;;;;;;;18.31;73.50;100227.86;107578;1251;97755;-68
2023/07/27 05:16:39;;;;;;;;;;;;;;;18.43;72.69;100232.24;107705;1251;112315;-67
2023/07/27 05:19:07;;;;;;;;;;;;;;;18.57;71.61;100239.56;107870;1250;108173;-68
2023/07/27 05:21:36;;;;;;;;;;;;;;;18.71;70.06;100242.52;107588;1251;108529;-68
2023/07/27 05:24:04;;;;;;;;;;;;;;;18.81;68.80;100248.93;107567;1251;97934;-67
2023/07/27 05:26:32;;;;;;;;;;;;;;;18.94;68.07;100247.46;107870;1250;97839;-66
2023/07/27 05:29:01;;;;;;;;;;;;;;;19.04;67.85;100250.48;107719;1250;112079;-67
2023/07/27 05:31:30;;;;;;;;;;;;;;;19.06;67.53;100248.88;107553;1251;109552;-67
2023/07/27 05:33:58;;;;;;;;;;;;;;;19.11;66.70;100252.09;107841;1249;107585;-67
2023/07/27 05:36:26;;;;;;;;;;;;;;;19.18;67.19;100252.99;107598;1250;97711;-68
2023/07/27 05:38:54;;;;;;;;;;;;;;;19.26;66.41;100259.97;107669;1251;98454;-66
2023/07/27 05:41:23;;;;;;;;;;;;;;;19.26;66.03;100263.63;107553;1250;112190;-66
2023/07/27 05:43:51;;;;;;;;;;;;;;;19.25;66.18;100270.66;107585;1251;109378;-67
2023/07/27 05:46:19;;;;;;;;;;;;;;;19.18;65.36;100270.98;107588;1251;108380;-67
2023/07/27 05:48:47;;;;;;;;;;;;;;;19.13;65.46;100273.65;107612;1251;97992;-67
2023/07/27 05:51:15;;;;;;;;;;;;;;;19.03;65.19;100281.51;107889;1251;97739;-67
2023/07/27 05:53:44;;;;;;;;;;;;;;;19.00;65.73;100285.32;107874;1251;111342;-67
2023/07/27 05:56:12;;;;;;;;;;;;;;;19.00;65.93;100284.72;107620;1251;110736;-68
2023/07/27 05:58:42;;;;;;;;;;;;;;;18.96;65.87;100283.98;107612;1251;108216;-68
2023/07/27 06:01:11;;;;;;;;;;;;;;;18.96;65.83;100283.03;107802;1253;98080;-69
2023/07/27 06:03:39;;;;;;;;;;;;;;;18.87;65.43;100285.02;107892;1250;97800;-68
2023/07/27 06:06:11;;;;;;;;;;;;;;;18.93;65.58;100287.81;107826;1251;111571;-67
2023/07/27 06:08:39;;;;;;;;;;;;;;;18.93;64.64;100285.73;107733;1250;110184;-67
2023/07/27 06:11:09;;;;;;;;;;;;;;;18.96;64.68;100291.95;107623;1253;108475;-68
2023/07/27 06:13:37;;;;;;;;;;;;;;;19.01;64.34;100294.16;107540;1251;97819;-67
2023/07/27 06:16:05;;;;;;;;;;;;;;;19.05;64.03;100289.48;107590;1249;97800;-67
2023/07/27 06:18:34;;;;;;;;;;;;;;;19.17;63.07;100291.20;107576;1250;112918;-67
2023/07/27 06:21:02;;;;;;;;;;;;;;;19.02;61.43;100292.36;107793;1251;109974;-67
2023/07/27 06:23:30;;;;;;;;;;;;;;;18.94;62.02;100286.19;107865;1253;108318;-68
2023/07/27 06:25:58;;;;;;;;;;;;;;;18.93;62.41;100280.66;107663;1250;97888;-68
2023/07/27 06:28:27;;;;;;;;;;;;;;;18.98;62.20;100286.52;107550;1251;97815;-70
2023/07/27 06:30:56;;;;;;;;;;;;;;;18.99;61.89;100292.64;107610;1250;112132;-67
2023/07/27 06:33:27;;;;;;;;;;;;;;;19.11;61.71;100296.71;107718;1251;109305;-71
2023/07/27 06:35:55;;;;;;;;;;;;;;;19.20;61.23;100296.11;107770;1251;108066;-68
2023/07/27 06:38:24;;;;;;;;;;;;;;;19.27;60.63;100295.00;107868;1251;97723;-68
2023/07/27 06:40:52;;;;;;;;;;;;;;;19.47;60.36;100296.22;107900;1251;97812;-69
2023/07/27 06:43:20;;;;;;;;;;;;;;;19.64;60.13;100295.33;107895;1251;111125;-69
2023/07/27 06:45:48;;;;;;;;;;;;;;;19.81;59.43;100300.47;107772;1251;109398;-68
2023/07/27 06:48:16;;;;;;;;;;;;;;;19.93;59.18;100303.41;107600;1250;108559;-67
2023/07/27 06:50:45;;;;;;;;;;;;;;;20.08;58.63;100308.61;107592;1251;97841;-68
2023/07/27 06:53:13;;;;;;;;;;;;;;;20.14;58.36;100305.63;107605;1250;97816;-68
2023/07/27 06:55:41;;;;;;;;;;;;;;;20.14;58.23;100311.59;107682;1249;110956;-67
2023/07/27 06:58:10;;;;;;;;;;;;;;;20.07;58.10;100317.23;107683;1251;108984;-66
2023/07/27 07:00:39;;;;;;;;;;;;;;;19.98;58.15;100317.27;107675;1249;107618;-70
2023/07/27 07:03:07;;;;;;;;;;;;;;;19.93;58.18;100315.55;107630;1251;97828;-69
2023/07/27 07:05:36;;;;;;;;;;;;;;;20.04;58.00;100323.20;107749;1250;97800;-69
2023/07/27 07:08:04;;;;;;;;;;;;;;;20.05;57.41;100330.83;107885;1250;111009;-65
2023/07/27 07:10:32;;;;;;;;;;;;;;;19.93;57.19;100338.39;107944;1251;109586;-69
2023/07/27 07:13:01;;;;;;;;;;;;;;;19.75;57.38;100349.72;107641;1250;108391;-66
2023/07/27 07:15:29;;;;;;;;;;;;;;;19.56;57.64;100347.04;107884;1251;97895;-68
2023/07/27 07:17:57;;;;;;;;;;;;;;;19.58;57.93;100342.67;107879;1253;97787;-69
2023/07/27 07:20:25;;;;;;;;;;;;;;;19.56;57.94;100340.15;107845;1250;111891;-68
2023/07/27 07:22:53;;;;;;;;;;;;;;;19.44;57.86;100336.26;107594;1251;109508;-68
2023/07/27 07:25:21;;;;;;;;;;;;;;;19.45;58.51;100323.09;107589;1251;107920;-69
2023/07/27 07:27:49;;;;;;;;;;;;;;;19.73;58.12;100321.34;107835;1250;97908;-67
2023/07/27 07:30:17;;;;;;;;;;;;;;;19.92;57.14;100320.00;107893;1251;97825;-69
2023/07/27 07:32:46;;;;;;;;;;;;;;;20.05;56.13;100333.40;107890;1251;110993;-67
2023/07/27 07:35:14;;;;;;;;;;;;;;;20.14;55.76;100336.38;107882;1251;109952;-68
2023/07/27 07:37:42;;;;;;;;;;;;;;;20.22;55.70;100330.15;107859;1251;108164;-68
2023/07/27 07:40:11;;;;;;;;;;;;;;;20.41;55.88;100340.60;107859;1251;97815;-67
2023/07/27 07:42:39;;;;;;;;;;;;;;;20.53;55.32;100341.27;107744;1251;97825;-67
2023/07/27 07:45:07;;;;;;;;;;;;;;;20.59;54.94;100343.90;107855;1251;111078;-67
2023/07/27 07:47:35;;;;;;;;;;;;;;;20.49;54.29;100345.69;107658;1251;108847;-67
2023/07/27 07:50:04;;;;;;;;;;;;;;;20.34;54.56;100353.31;107684;1256;107685;-67
2023/07/27 07:52:33;;;;;;;;;;;;;;;20.25;54.54;100352.52;107888;1253;97909;-68
2023/07/27 07:55:02;;;;;;;;;;;;;;;20.36;54.61;100344.27;107876;1253;97755;-68
2023/07/27 07:57:30;;;;;;;;;;;;;;;20.52;54.59;100339.08;107893;1251;111594;-70
2023/07/27 07:59:58;;;;;;;;;;;;;;;20.63;54.76;100340.48;107855;1251;109255;-67
2023/07/27 08:02:26;;;;;;;;;;;;;;;20.57;53.32;100353.11;107327;1253;695744;-68
2023/07/27 08:04:54;;;;;;;;;;;;;;;20.49;53.54;100353.33;107867;1250;97806;-69
2023/07/27 08:07:22;;;;;;;;;;;;;;;20.46;53.63;100365.20;107860;1251;97809;-68
2023/07/27 08:09:54;;;;;;;;;;;;;;;20.61;54.55;100364.64;107862;1253;110891;-69
2023/07/27 08:12:22;;;;;;;;;;;;;;;20.99;54.44;100360.48;107718;1251;109888;-73
2023/07/27 08:14:50;;;;;;;;;;;;;;;21.36;52.32;100359.70;107583;1250;108548;-70
2023/07/27 08:17:19;;;;;;;;;;;;;;;21.58;51.94;100357.08;107898;1251;97703;-72
2023/07/27 08:19:55;;;;;;;;;;;;;;;21.72;51.36;100354.28;107688;1256;97860;-74
2023/07/27 08:22:28;;;;;;;;;;;;;;;21.85;50.87;100345.44;107725;1251;111259;-71
2023/07/27 08:24:57;;;;;;;;;;;;;;;21.95;51.69;100346.33;107607;1250;109127;-71
2023/07/27 08:27:45;;;;;;;;;;;;;;;22.22;51.30;100353.78;107636;1251;108153;-72
2023/07/27 08:30:13;;;;;;;;;;;;;;;22.40;49.92;100365.70;107558;1251;97919;-68
2023/07/27 08:32:41;;;;;;;;;;;;;;;22.49;49.77;100364.15;107574;1250;97802;-67
2023/07/27 08:35:10;;;;;;;;;;;;;;;22.58;50.12;100360.79;107617;1251;111631;-67
2023/07/27 08:37:38;;;;;;;;;;;;;;;22.67;49.57;100363.21;107795;1251;108585;-69
2023/07/27 08:40:08;;;;;;;;;;;;;;;22.79;48.90;100361.33;107845;1253;108119;-67
2023/07/27 08:42:37;;;;;;;;;;;;;;;22.92;48.30;100363.04;107874;1251;97805;-68
2023/07/27 08:45:06;;;;;;;;;;;;;;;22.90;47.26;100366.86;107881;1251;97806;-67
2023/07/27 08:47:35;;;;;;;;;;;;;;;22.68;47.52;100365.29;107668;1251;111275;-68
2023/07/27 08:50:04;;;;;;;;;;;;;;;22.70;46.98;100360.03;107807;1251;108658;-70
2023/07/27 08:52:32;;;;;;;;;;;;;;;22.74;47.61;100354.59;107881;1251;107520;-68
2023/07/27 08:55:00;;;;;;;;;;;;;;;22.83;47.80;100350.87;107702;1251;97844;-70
2023/07/27 08:57:28;;;;;;;;;;;;;;;22.93;47.90;100349.02;107715;1250;97797;-70
2023/07/27 08:59:56;;;;;;;;;;;;;;;23.00;48.24;100355.77;107723;1251;110856;-69
2023/07/27 09:02:24;;;;;;;;;;;;;;;23.05;47.14;100358.93;107901;1251;110148;-67
2023/07/27 09:04:52;;;;;;;;;;;;;;;22.96;47.63;100353.08;107903;1251;108900;-69
2023/07/27 09:07:21;;;;;;;;;;;;;;;23.01;47.08;100352.38;107872;1253;97806;-70
2023/07/27 09:09:50;;;;;;;;;;;;;;;22.98;46.90;100354.88;107900;1249;97792;-69
2023/07/27 09:12:22;;;;;;;;;;;;;;;22.95;47.75;100355.33;107717;1250;111384;-68
2023/07/27 09:14:50;;;;;;;;;;;;;;;23.04;47.31;100355.34;107728;1251;108483;-68
2023/07/27 09:17:18;;;;;;;;;;;;;;;23.08;46.75;100356.23;107607;1253;108904;-68
2023/07/27 09:19:50;;;;;;;;;;;;;;;23.08;46.99;100354.75;107587;1253;97926;-67
2023/07/27 09:22:18;;;;;;;;;;;;;;;22.96;45.75;100359.66;107592;1251;97804;-69
2023/07/27 09:24:47;;;;;;;;;;;;;;;23.02;46.84;100368.17;107643;1253;111636;-68
2023/07/27 09:27:19;;;;;;;;;;;;;;;23.21;46.10;100364.79;107600;1250;110530;-72
2023/07/27 09:29:56;;;;;;;;;;;;;;;23.50;46.14;100358.38;107596;1250;108410;-67
2023/07/27 09:32:24;;;;;;;;;;;;;;;23.88;44.09;100350.15;107603;1251;97934;-69
2023/07/27 09:34:56;;;;;;;;;;;;;;;24.25;43.29;100359.38;107598;1251;97981;-69
2023/07/27 09:37:25;;;;;;;;;;;;;;;24.54;42.80;100360.45;107785;1253;111307;-68
2023/07/27 09:40:05;;;;;;;;;;;;;;;24.80;41.89;100363.92;107854;1251;111053;-67
2023/07/27 09:42:33;;;;;;;;;;;;;;;25.01;40.30;100362.52;107863;1251;107592;-66
2023/07/27 09:45:02;;;;;;;;;;;;;;;24.89;40.87;100362.58;107887;1249;97833;-68
2023/07/27 09:47:31;;;;;;;;;;;;;;;24.92;41.21;100363.95;107706;1251;97936;-69
2023/07/27 09:50:00;;;;;;;;;;;;;;;25.12;40.92;100356.63;107814;1251;110544;-69
2023/07/27 09:52:29;;;;;;;;;;;;;;;25.15;40.38;100349.22;107667;1251;109986;-68
2023/07/27 09:54:58;;;;;;;;;;;;;;;25.21;40.26;100340.42;107546;1251;108581;-68
2023/07/27 09:57:26;;;;;;;;;;;;;;;25.11;40.23;100348.95;107761;1250;97804;-70
2023/07/27 09:59:55;;;;;;;;;;;;;;;25.00;40.70;100354.84;107903;1253;97719;-68
2023/07/27 10:02:23;;;;;;;;;;;;;;;25.02;40.88;100360.33;107722;1251;111819;-69
2023/07/27 10:05:06;;;;;;;;;;;;;;;24.88;40.55;100361.23;107620;1253;110508;-72
2023/07/27 10:07:49;;;;;;;;;;;;;;;24.70;41.17;100357.56;107647;1251;107337;-69
2023/07/27 10:10:35;;;;;;;;;;;;;;;24.53;40.67;100363.67;107595;1251;97816;-69
2023/07/27 10:13:30;;;;;;;;;;;;;;;24.32;41.09;100363.07;107590;1251;97788;-69
2023/07/27 10:16:01;;;;;;;;;;;;;;;24.27;41.76;100363.83;107622;1251;111034;-68
2023/07/27 10:18:31;;;;;;;;;;;;;;;24.24;41.24;100360.59;107664;1251;108425;-69
2023/07/27 10:21:18;;;;;;;;;;;;;;;24.20;41.32;100371.02;107599;1251;107923;-68
2023/07/27 10:23:56;;;;;;;;;;;;;;;24.10;41.45;100373.20;107590;1249;97836;-68
2023/07/27 10:26:43;;;;;;;;;;;;;;;24.02;41.46;100377.77;107604;1251;97834;-68
2023/07/27 10:29:15;;;;;;;;;;;;;;;23.76;41.40;100377.02;107580;1251;111858;-69
2023/07/27 10:31:45;;;;;;;;;;;;;;;23.58;42.13;100375.84;107596;1251;109682;-70
2023/07/27 10:34:17;;;;;;;;;;;;;;;23.58;42.32;100377.95;107611;1251;108599;-71
2023/07/27 10:36:58;;;;;;;;;;;;;;;23.69;41.62;100371.13;107623;1253;97826;-71
2023/07/27 10:39:39;;;;;;;;;;;;;;;23.73;42.42;100376.23;107603;1251;97772;-70
2023/07/27 10:42:09;;;;;;;;;;;;;;;23.85;43.10;100373.39;107728;1251;111787;-69
2023/07/27 10:44:46;;;;;;;;;;;;;;;23.97;42.56;100361.70;107717;1251;109251;-70
2023/07/27 10:47:15;;;;;;;;;;;;;;;24.05;42.32;100362.96;107833;1252;108620;-67
2023/07/27 10:49:45;;;;;;;;;;;;;;;24.13;42.05;100360.26;107836;1253;97823;-71
2023/07/27 10:52:17;;;;;;;;;;;;;;;24.11;41.70;100355.78;107774;1251;97816;-72
2023/07/27 10:54:46;;;;;;;;;;;;;;;24.05;42.22;100356.54;107597;1253;111387;-67
2023/07/27 10:57:15;;;;;;;;;;;;;;;23.99;41.79;100363.90;107534;1251;109256;-69
2023/07/27 10:59:47;;;;;;;;;;;;;;;23.96;41.88;100354.70;107638;1252;108678;-69
2023/07/27 11:02:16;;;;;;;;;;;;;;;23.83;42.21;100358.59;107692;1251;97869;-68
2023/07/27 11:04:45;;;;;;;;;;;;;;;23.70;42.63;100353.73;107592;1253;97698;-68
2023/07/27 11:07:23;;;;;;;;;;;;;;;23.70;42.70;100355.73;107661;1251;111906;-68
2023/07/27 11:09:51;;;;;;;;;;;;;;;23.71;41.90;100351.50;107853;1253;110012;-69
2023/07/27 11:12:20;;;;;;;;;;;;;;;23.62;42.07;100363.79;107842;1251;108368;-68
2023/07/27 11:14:48;;;;;;;;;;;;;;;23.48;42.38;100369.13;107822;1253;97873;-69
2023/07/27 11:17:16;;;;;;;;;;;;;;;23.42;42.95;100362.92;107826;1250;97713;-67
2023/07/27 11:19:45;;;;;;;;;;;;;;;23.50;42.82;100359.52;107830;1253;111940;-67
2023/07/27 11:22:13;;;;;;;;;;;;;;;23.46;42.79;100361.33;107874;1253;109228;-70
2023/07/27 11:24:42;;;;;;;;;;;;;;;23.44;42.96;100364.63;107840;1251;108286;-69
2023/07/27 11:27:12;;;;;;;;;;;;;;;23.49;42.93;100369.30;107817;1251;97800;-68
2023/07/27 11:29:45;;;;;;;;;;;;;;;23.50;43.43;100375.75;107841;1253;97806;-70
2023/07/27 11:32:13;;;;;;;;;;;;;;;23.49;43.05;100368.83;107808;1251;110668;-69
2023/07/27 11:34:42;;;;;;;;;;;;;;;23.47;43.37;100355.26;107842;1251;110208;-68
2023/07/27 11:37:10;;;;;;;;;;;;;;;23.46;43.44;100359.99;107712;1254;108515;-69
2023/07/27 11:39:39;;;;;;;;;;;;;;;23.51;43.83;100362.11;107699;1251;97796;-70
2023/07/27 11:42:10;;;;;;;;;;;;;;;23.57;43.32;100360.36;107669;1251;97701;-68
2023/07/27 11:44:39;;;;;;;;;;;;;;;23.55;42.71;100359.27;107736;1251;112118;-69
2023/07/27 11:47:09;;;;;;;;;;;;;;;23.54;42.69;100364.56;107671;1254;109694;-68
2023/07/27 11:49:42;;;;;;;;;;;;;;;23.57;42.47;100373.11;107624;1251;107363;-73
2023/07/27 11:52:11;;;;;;;;;;;;;;;23.57;42.06;100378.55;107526;1251;97928;-67
2023/07/27 11:54:40;;;;;;;;;;;;;;;23.49;41.84;100377.27;107585;1254;97800;-68
2023/07/27 11:57:08;;;;;;;;;;;;;;;23.39;42.13;100376.35;107638;1251;112122;-67
2023/07/27 11:59:36;;;;;;;;;;;;;;;23.25;42.64;100370.44;107819;1253;109776;-67
2023/07/27 12:02:04;;;;;;;;;;;;;;;23.15;43.32;100374.64;107692;1251;108436;-68
2023/07/27 12:04:34;;;;;;;;;;;;;;;23.08;43.57;100366.91;107869;1251;97838;-69
2023/07/27 12:07:04;;;;;;;;;;;;;;;23.03;43.45;100370.10;107760;1253;97716;-66
2023/07/27 12:09:35;;;;;;;;;;;;;;;22.89;42.95;100370.58;107747;1253;112043;-67
2023/07/27 12:12:04;;;;;;;;;;;;;;;22.83;43.40;100370.52;107544;1252;109662;-67
2023/07/27 12:14:33;;;;;;;;;;;;;;;22.85;43.37;100373.08;107823;1253;108611;-68
2023/07/27 12:17:08;;;;;;;;;;;;;;;22.90;43.29;100370.16;107621;1249;98286;-70
2023/07/27 12:19:57;;;;;;;;;;;;;;;23.00;43.00;100371.78;107799;1251;97815;-71
2023/07/27 12:22:31;;;;;;;;;;;;;;;22.95;42.74;100372.12;107830;1251;112250;-68
2023/07/27 12:25:02;;;;;;;;;;;;;;;23.02;43.16;100376.39;107762;1250;109660;-69
2023/07/27 12:27:34;;;;;;;;;;;;;;;23.19;43.41;100378.65;107817;1251;109616;-69
2023/07/27 12:30:03;;;;;;;;;;;;;;;23.38;42.89;100380.55;107796;1251;97822;-69
2023/07/27 12:32:34;;;;;;;;;;;;;;;23.58;42.74;100378.46;107652;1251;97913;-69
2023/07/27 12:35:05;;;;;;;;;;;;;;;23.81;42.34;100375.77;107813;1253;112410;-70
2023/07/27 12:37:37;;;;;;;;;;;;;;;24.12;41.78;100376.80;107808;1253;109292;-70